sensor_id;sensor_type;location;lat;lon;timestamp;pressure;altitude;pressure_sealevel;temperature;humidity
34241;BME280;20503;50.200;19.508;2022-11-20T00:03:43;101436.52;;;-7.02;100.00
34241;BME280;20503;50.200;19.508;2022-11-20T00:08:59;101441.34;;;-7.08;100.00
34241;BME280;20503;50.200;19.508;2022-11-20T00:14:06;101429.77;;;-7.07;100.00
34241;BME280;20503;50.200;19.508;2022-11-20T00:19:15;101431.38;;;-7.05;100.00
34241;BME280;20503;50.200;19.508;2022-11-20T00:24:26;101428.82;;;-7.06;100.00
34241;BME280;20503;50.200;19.508;2022-11-20T00:29:36;101415.66;;;-7.09;100.00
34241;BME280;20503;50.200;19.508;2022-11-20T00:34:47;101415.24;;;-7.17;100.00
34241;BME280;20503;50.200;19.508;2022-11-20T00:39:58;101417.48;;;-7.10;100.00
34241;BME280;20503;50.200;19.508;2022-11-20T00:45:09;101419.13;;;-7.07;100.00
34241;BME280;20503;50.200;19.508;2022-11-20T00:50:20;101428.59;;;-7.19;100.00
34241;BME280;20503;50.200;19.508;2022-11-20T00:55:31;101422.84;;;-7.27;99.56
34241;BME280;20503;50.200;19.508;2022-11-20T01:00:41;101407.91;;;-7.29;99.51
34241;BME280;20503;50.200;19.508;2022-11-20T01:05:52;101408.08;;;-7.32;99.50
34241;BME280;20503;50.200;19.508;2022-11-20T01:11:05;101408.30;;;-7.36;100.00
34241;BME280;20503;50.200;19.508;2022-11-20T01:16:22;101407.53;;;-7.38;99.95
34241;BME280;20503;50.200;19.508;2022-11-20T01:26:37;101385.46;;;-7.24;100.00
34241;BME280;20503;50.200;19.508;2022-11-20T01:31:46;101382.38;;;-7.16;100.00
34241;BME280;20503;50.200;19.508;2022-11-20T01:36:57;101377.84;;;-7.14;100.00
34241;BME280;20503;50.200;19.508;2022-11-20T01:42:08;101380.84;;;-7.20;100.00
34241;BME280;20503;50.200;19.508;2022-11-20T01:52:45;101373.23;;;-7.43;99.65
34241;BME280;20503;50.200;19.508;2022-11-20T01:57:48;101368.72;;;-7.41;99.92
34241;BME280;20503;50.200;19.508;2022-11-20T02:02:58;101380.65;;;-7.49;99.18
34241;BME280;20503;50.200;19.508;2022-11-20T02:08:03;101382.80;;;-7.56;98.43
34241;BME280;20503;50.200;19.508;2022-11-20T02:13:13;101382.34;;;-7.64;99.34
34241;BME280;20503;50.200;19.508;2022-11-20T02:18:27;101389.57;;;-7.50;100.00
34241;BME280;20503;50.200;19.508;2022-11-20T02:28:49;101395.82;;;-7.51;100.00
34241;BME280;20503;50.200;19.508;2022-11-20T02:33:56;101402.02;;;-7.68;99.42
34241;BME280;20503;50.200;19.508;2022-11-20T02:39:07;101405.79;;;-7.72;98.96
34241;BME280;20503;50.200;19.508;2022-11-20T02:44:18;101407.57;;;-7.72;98.87
34241;BME280;20503;50.200;19.508;2022-11-20T02:49:28;101413.05;;;-7.75;98.91
34241;BME280;20503;50.200;19.508;2022-11-20T02:54:39;101411.16;;;-7.73;99.01
34241;BME280;20503;50.200;19.508;2022-11-20T02:59:50;101405.02;;;-7.74;98.57
34241;BME280;20503;50.200;19.508;2022-11-20T03:05:01;101398.20;;;-7.79;98.43
34241;BME280;20503;50.200;19.508;2022-11-20T03:10:12;101400.87;;;-7.79;98.37
34241;BME280;20503;50.200;19.508;2022-11-20T03:15:23;101394.07;;;-7.85;97.77
34241;BME280;20503;50.200;19.508;2022-11-20T03:20:34;101390.86;;;-7.91;97.65
34241;BME280;20503;50.200;19.508;2022-11-20T03:25:45;101398.11;;;-7.95;97.12
34241;BME280;20503;50.200;19.508;2022-11-20T03:30:55;101399.27;;;-8.00;96.88
34241;BME280;20503;50.200;19.508;2022-11-20T03:36:13;101399.38;;;-8.02;96.75
34241;BME280;20503;50.200;19.508;2022-11-20T03:41:19;101394.52;;;-8.11;96.33
34241;BME280;20503;50.200;19.508;2022-11-20T03:46:28;101393.58;;;-8.10;97.04
34241;BME280;20503;50.200;19.508;2022-11-20T03:51:38;101399.26;;;-8.17;96.94
34241;BME280;20503;50.200;19.508;2022-11-20T03:56:49;101391.17;;;-8.14;98.17
34241;BME280;20503;50.200;19.508;2022-11-20T04:02:00;101384.55;;;-8.06;98.78
34241;BME280;20503;50.200;19.508;2022-11-20T04:07:11;101358.29;;;-8.12;98.39
34241;BME280;20503;50.200;19.508;2022-11-20T04:12:22;101378.98;;;-8.01;98.05
34241;BME280;20503;50.200;19.508;2022-11-20T04:17:32;101358.45;;;-8.15;97.45
34241;BME280;20503;50.200;19.508;2022-11-20T04:22:44;101377.91;;;-8.14;97.02
34241;BME280;20503;50.200;19.508;2022-11-20T04:27:54;101367.98;;;-8.11;96.92
34241;BME280;20503;50.200;19.508;2022-11-20T04:33:05;101355.63;;;-8.12;97.17
34241;BME280;20503;50.200;19.508;2022-11-20T04:38:15;101350.27;;;-8.10;97.20
34241;BME280;20503;50.200;19.508;2022-11-20T04:43:26;101349.48;;;-8.12;97.47
34241;BME280;20503;50.200;19.508;2022-11-20T04:48:37;101346.11;;;-8.16;97.54
34241;BME280;20503;50.200;19.508;2022-11-20T04:53:48;101334.21;;;-8.24;97.11
34241;BME280;20503;50.200;19.508;2022-11-20T04:59:02;101333.66;;;-8.31;97.31
34241;BME280;20503;50.200;19.508;2022-11-20T05:04:10;101340.13;;;-8.36;96.87
34241;BME280;20503;50.200;19.508;2022-11-20T05:09:20;101331.55;;;-8.41;96.47
34241;BME280;20503;50.200;19.508;2022-11-20T05:14:31;101331.05;;;-8.49;96.53
34241;BME280;20503;50.200;19.508;2022-11-20T05:19:42;101339.66;;;-8.44;96.95
34241;BME280;20503;50.200;19.508;2022-11-20T05:24:53;101348.02;;;-8.35;97.93
34241;BME280;20503;50.200;19.508;2022-11-20T05:30:05;101328.13;;;-8.26;98.51
34241;BME280;20503;50.200;19.508;2022-11-20T05:35:14;101318.06;;;-8.20;98.10
34241;BME280;20503;50.200;19.508;2022-11-20T05:40:25;101309.61;;;-8.28;97.18
34241;BME280;20503;50.200;19.508;2022-11-20T05:45:36;101307.13;;;-8.31;96.79
34241;BME280;20503;50.200;19.508;2022-11-20T05:50:48;101306.57;;;-8.37;96.30
34241;BME280;20503;50.200;19.508;2022-11-20T05:56:03;101301.49;;;-8.42;96.20
34241;BME280;20503;50.200;19.508;2022-11-20T06:01:15;101308.77;;;-8.45;96.16
34241;BME280;20503;50.200;19.508;2022-11-20T06:06:20;101310.48;;;-8.44;96.79
34241;BME280;20503;50.200;19.508;2022-11-20T06:11:30;101319.05;;;-8.39;96.96
34241;BME280;20503;50.200;19.508;2022-11-20T06:16:41;101312.82;;;-8.38;97.01
34241;BME280;20503;50.200;19.508;2022-11-20T06:21:53;101311.65;;;-8.33;97.15
34241;BME280;20503;50.200;19.508;2022-11-20T06:27:02;101317.57;;;-8.28;96.78
34241;BME280;20503;50.200;19.508;2022-11-20T06:32:14;101301.75;;;-8.29;96.60
34241;BME280;20503;50.200;19.508;2022-11-20T06:37:25;101307.45;;;-8.20;96.69
34241;BME280;20503;50.200;19.508;2022-11-20T06:42:35;101312.88;;;-8.06;96.82
34241;BME280;20503;50.200;19.508;2022-11-20T06:47:46;101301.20;;;-7.86;97.77
34241;BME280;20503;50.200;19.508;2022-11-20T06:53:00;101303.82;;;-7.69;98.34
34241;BME280;20503;50.200;19.508;2022-11-20T06:58:07;101305.84;;;-7.57;98.26
34241;BME280;20503;50.200;19.508;2022-11-20T07:03:18;101299.52;;;-7.39;98.08
34241;BME280;20503;50.200;19.508;2022-11-20T07:08:29;101300.16;;;-7.19;99.08
34241;BME280;20503;50.200;19.508;2022-11-20T07:13:40;101280.75;;;-6.75;100.00
34241;BME280;20503;50.200;19.508;2022-11-20T07:18:51;101296.85;;;-6.47;100.00
34241;BME280;20503;50.200;19.508;2022-11-20T07:24:01;101297.28;;;-5.95;100.00
34241;BME280;20503;50.200;19.508;2022-11-20T07:29:12;101292.26;;;-5.30;99.56
34241;BME280;20503;50.200;19.508;2022-11-20T07:34:23;101280.16;;;-4.16;98.31
34241;BME280;20503;50.200;19.508;2022-11-20T07:39:34;101286.22;;;-3.25;93.66
34241;BME280;20503;50.200;19.508;2022-11-20T07:44:45;101270.13;;;-2.30;91.00
34241;BME280;20503;50.200;19.508;2022-11-20T07:49:55;101277.05;;;-1.59;88.46
34241;BME280;20503;50.200;19.508;2022-11-20T07:55:07;101283.07;;;-1.33;91.74
34241;BME280;20503;50.200;19.508;2022-11-20T08:00:17;101290.72;;;-0.63;87.64
34241;BME280;20503;50.200;19.508;2022-11-20T08:05:28;101286.18;;;-0.20;88.32
34241;BME280;20503;50.200;19.508;2022-11-20T08:10:38;101283.45;;;-0.09;86.54
34241;BME280;20503;50.200;19.508;2022-11-20T08:15:50;101287.34;;;-0.33;89.16
34241;BME280;20503;50.200;19.508;2022-11-20T08:21:03;101289.71;;;0.12;89.13
34241;BME280;20503;50.200;19.508;2022-11-20T08:26:11;101294.25;;;0.52;88.15
34241;BME280;20503;50.200;19.508;2022-11-20T08:31:23;101284.89;;;0.77;88.33
34241;BME280;20503;50.200;19.508;2022-11-20T08:36:33;101280.82;;;0.82;87.68
34241;BME280;20503;50.200;19.508;2022-11-20T08:41:43;101278.73;;;1.25;86.04
34241;BME280;20503;50.200;19.508;2022-11-20T08:46:54;101276.42;;;1.79;81.93
34241;BME280;20503;50.200;19.508;2022-11-20T08:52:05;101268.63;;;1.95;80.30
34241;BME280;20503;50.200;19.508;2022-11-20T08:57:15;101268.81;;;2.31;78.58
34241;BME280;20503;50.200;19.508;2022-11-20T09:02:26;101273.34;;;2.77;75.94
34241;BME280;20503;50.200;19.508;2022-11-20T09:07:37;101274.08;;;2.69;79.27
34241;BME280;20503;50.200;19.508;2022-11-20T09:12:54;101265.96;;;2.69;75.96
34241;BME280;20503;50.200;19.508;2022-11-20T09:18:00;101267.91;;;1.74;77.99
34241;BME280;20503;50.200;19.508;2022-11-20T09:23:10;101272.54;;;1.53;80.54
34241;BME280;20503;50.200;19.508;2022-11-20T09:28:22;101269.53;;;0.98;82.46
34241;BME280;20503;50.200;19.508;2022-11-20T09:33:31;101272.16;;;1.18;81.90
34241;BME280;20503;50.200;19.508;2022-11-20T09:38:42;101271.47;;;0.86;82.52
34241;BME280;20503;50.200;19.508;2022-11-20T09:59:39;101279.29;;;0.59;82.56
34241;BME280;20503;50.200;19.508;2022-11-20T10:04:47;101270.55;;;0.67;83.22
34241;BME280;20503;50.200;19.508;2022-11-20T10:09:53;101276.77;;;0.47;82.59
34241;BME280;20503;50.200;19.508;2022-11-20T10:31:03;101247.49;;;0.53;84.67
34241;BME280;20503;50.200;19.508;2022-11-20T10:36:17;101230.77;;;0.50;84.57
34241;BME280;20503;50.200;19.508;2022-11-20T10:41:28;101220.33;;;0.66;84.25
34241;BME280;20503;50.200;19.508;2022-11-20T10:46:46;101220.88;;;0.60;83.63
34241;BME280;20503;50.200;19.508;2022-11-20T10:52:12;101215.38;;;0.61;84.12
34241;BME280;20503;50.200;19.508;2022-11-20T10:57:08;101201.95;;;0.71;85.08
34241;BME280;20503;50.200;19.508;2022-11-20T11:02:19;101203.70;;;0.81;85.02
34241;BME280;20503;50.200;19.508;2022-11-20T11:07:26;101194.30;;;0.76;84.89
34241;BME280;20503;50.200;19.508;2022-11-20T11:12:28;101193.68;;;0.63;85.47
34241;BME280;20503;50.200;19.508;2022-11-20T11:17:32;101191.48;;;0.77;84.31
34241;BME280;20503;50.200;19.508;2022-11-20T11:27:47;101180.16;;;0.83;83.90
34241;BME280;20503;50.200;19.508;2022-11-20T11:32:50;101180.18;;;0.93;83.82
34241;BME280;20503;50.200;19.508;2022-11-20T11:38:02;101179.05;;;0.86;83.85
34241;BME280;20503;50.200;19.508;2022-11-20T11:43:04;101171.36;;;0.81;84.06
34241;BME280;20503;50.200;19.508;2022-11-20T11:48:16;101172.69;;;0.96;84.35
34241;BME280;20503;50.200;19.508;2022-11-20T11:53:23;101182.06;;;1.02;83.94
34241;BME280;20503;50.200;19.508;2022-11-20T12:09:08;101167.93;;;0.70;84.98
34241;BME280;20503;50.200;19.508;2022-11-20T12:19:30;101134.77;;;0.79;85.43
34241;BME280;20503;50.200;19.508;2022-11-20T12:24:45;101131.65;;;0.74;85.31
34241;BME280;20503;50.200;19.508;2022-11-20T13:01:54;101108.96;;;0.67;86.14
34241;BME280;20503;50.200;19.508;2022-11-20T13:06:40;101088.23;;;0.58;86.64
34241;BME280;20503;50.200;19.508;2022-11-20T13:11:57;101089.83;;;0.70;86.80
34241;BME280;20503;50.200;19.508;2022-11-20T13:17:05;101071.26;;;0.67;86.86
34241;BME280;20503;50.200;19.508;2022-11-20T13:22:09;101076.38;;;0.79;86.80
34241;BME280;20503;50.200;19.508;2022-11-20T13:27:17;101088.56;;;0.74;87.50
34241;BME280;20503;50.200;19.508;2022-11-20T13:32:21;101071.10;;;0.68;88.17
34241;BME280;20503;50.200;19.508;2022-11-20T13:42:40;101079.28;;;0.57;88.24
34241;BME280;20503;50.200;19.508;2022-11-20T13:47:49;101085.11;;;0.53;88.66
34241;BME280;20503;50.200;19.508;2022-11-20T14:03:18;101073.76;;;0.10;91.37
34241;BME280;20503;50.200;19.508;2022-11-20T14:08:28;101064.22;;;-0.03;92.77
34241;BME280;20503;50.200;19.508;2022-11-20T14:13:32;101059.45;;;-0.20;94.16
34241;BME280;20503;50.200;19.508;2022-11-20T14:18:35;101064.58;;;-0.38;95.68
34241;BME280;20503;50.200;19.508;2022-11-20T14:23:36;101051.80;;;-0.45;97.04
34241;BME280;20503;50.200;19.508;2022-11-20T14:28:48;101061.44;;;-0.43;97.44
34241;BME280;20503;50.200;19.508;2022-11-20T14:33:56;101059.47;;;-0.41;97.83
34241;BME280;20503;50.200;19.508;2022-11-20T14:44:21;101052.66;;;-0.45;97.95
34241;BME280;20503;50.200;19.508;2022-11-20T14:49:30;101054.15;;;-0.52;98.08
34241;BME280;20503;50.200;19.508;2022-11-20T14:54:49;101017.67;;;-0.75;98.38
34241;BME280;20503;50.200;19.508;2022-11-20T14:59:51;101037.07;;;-0.71;98.82
34241;BME280;20503;50.200;19.508;2022-11-20T15:05:01;101041.31;;;-0.69;99.32
34241;BME280;20503;50.200;19.508;2022-11-20T15:10:26;101029.02;;;-0.71;99.55
34241;BME280;20503;50.200;19.508;2022-11-20T15:20:40;101019.10;;;-0.71;99.82
34241;BME280;20503;50.200;19.508;2022-11-20T15:25:45;101023.10;;;-0.65;99.78
34241;BME280;20503;50.200;19.508;2022-11-20T15:30:55;101022.39;;;-0.67;99.91
34241;BME280;20503;50.200;19.508;2022-11-20T15:36:07;101019.43;;;-0.64;99.66
34241;BME280;20503;50.200;19.508;2022-11-20T15:41:16;101021.58;;;-0.58;99.72
34241;BME280;20503;50.200;19.508;2022-11-20T15:46:30;101026.57;;;-0.54;99.65
34241;BME280;20503;50.200;19.508;2022-11-20T15:51:41;101017.89;;;-0.37;99.21
34241;BME280;20503;50.200;19.508;2022-11-20T15:56:51;101004.17;;;-0.34;98.98
34241;BME280;20503;50.200;19.508;2022-11-20T16:02:00;101005.28;;;-0.16;98.36
34241;BME280;20503;50.200;19.508;2022-11-20T16:07:11;101016.31;;;-0.09;97.51
34241;BME280;20503;50.200;19.508;2022-11-20T16:12:22;101032.60;;;-0.11;98.08
34241;BME280;20503;50.200;19.508;2022-11-20T16:17:36;101016.28;;;-0.19;98.56
34241;BME280;20503;50.200;19.508;2022-11-20T16:22:43;101022.36;;;-0.17;98.33
34241;BME280;20503;50.200;19.508;2022-11-20T16:27:53;101002.58;;;-0.16;98.57
34241;BME280;20503;50.200;19.508;2022-11-20T16:33:09;101007.85;;;-0.05;98.63
34241;BME280;20503;50.200;19.508;2022-11-20T16:38:16;101009.70;;;-0.05;98.89
34241;BME280;20503;50.200;19.508;2022-11-20T16:43:26;101002.36;;;-0.03;99.48
34241;BME280;20503;50.200;19.508;2022-11-20T16:48:37;101011.26;;;-0.03;100.00
34241;BME280;20503;50.200;19.508;2022-11-20T16:53:52;101013.10;;;-0.03;100.00
34241;BME280;20503;50.200;19.508;2022-11-20T16:58:59;101011.52;;;-0.06;100.00
34241;BME280;20503;50.200;19.508;2022-11-20T17:04:09;101003.18;;;-0.03;100.00
34241;BME280;20503;50.200;19.508;2022-11-20T17:09:20;101002.66;;;0.03;100.00
34241;BME280;20503;50.200;19.508;2022-11-20T17:14:30;101005.07;;;0.06;100.00
34241;BME280;20503;50.200;19.508;2022-11-20T17:19:42;100997.70;;;0.08;100.00
34241;BME280;20503;50.200;19.508;2022-11-20T17:24:52;101004.08;;;0.07;100.00
34241;BME280;20503;50.200;19.508;2022-11-20T17:30:04;101012.15;;;0.07;100.00
34241;BME280;20503;50.200;19.508;2022-11-20T17:35:20;101005.51;;;0.11;100.00
34241;BME280;20503;50.200;19.508;2022-11-20T17:40:26;101002.77;;;0.01;100.00
34241;BME280;20503;50.200;19.508;2022-11-20T17:45:40;101003.37;;;0.05;100.00
34241;BME280;20503;50.200;19.508;2022-11-20T17:50:51;100989.94;;;0.14;100.00
34241;BME280;20503;50.200;19.508;2022-11-20T17:56:02;101003.42;;;0.24;100.00
34241;BME280;20503;50.200;19.508;2022-11-20T18:01:17;100979.34;;;0.22;100.00
34241;BME280;20503;50.200;19.508;2022-11-20T18:06:25;100994.44;;;0.04;100.00
34241;BME280;20503;50.200;19.508;2022-11-20T18:11:36;100976.96;;;-0.10;100.00
34241;BME280;20503;50.200;19.508;2022-11-20T18:16:50;100975.51;;;-0.24;100.00
34241;BME280;20503;50.200;19.508;2022-11-20T18:21:55;100966.76;;;-0.16;100.00
34241;BME280;20503;50.200;19.508;2022-11-20T18:27:11;100972.54;;;-0.21;100.00
34241;BME280;20503;50.200;19.508;2022-11-20T18:32:18;100983.93;;;-0.38;100.00
34241;BME280;20503;50.200;19.508;2022-11-20T18:37:27;100975.78;;;-0.27;100.00
34241;BME280;20503;50.200;19.508;2022-11-20T18:42:38;100970.01;;;-0.22;100.00
34241;BME280;20503;50.200;19.508;2022-11-20T18:47:51;100958.95;;;-0.29;100.00
34241;BME280;20503;50.200;19.508;2022-11-20T18:53:00;100957.74;;;-0.06;100.00
34241;BME280;20503;50.200;19.508;2022-11-20T18:58:12;100958.91;;;0.01;100.00
34241;BME280;20503;50.200;19.508;2022-11-20T19:03:22;100960.30;;;-0.04;100.00
34241;BME280;20503;50.200;19.508;2022-11-20T19:08:36;100966.50;;;-0.04;100.00
34241;BME280;20503;50.200;19.508;2022-11-20T19:13:43;100966.88;;;-0.18;100.00
34241;BME280;20503;50.200;19.508;2022-11-20T19:18:54;100972.82;;;-0.24;100.00
34241;BME280;20503;50.200;19.508;2022-11-20T19:24:04;100969.98;;;-0.32;100.00
34241;BME280;20503;50.200;19.508;2022-11-20T19:29:15;100968.71;;;-0.28;100.00
34241;BME280;20503;50.200;19.508;2022-11-20T19:34:26;100955.97;;;-0.26;100.00
34241;BME280;20503;50.200;19.508;2022-11-20T19:39:37;100969.81;;;-0.30;100.00
34241;BME280;20503;50.200;19.508;2022-11-20T19:44:48;100966.54;;;-0.34;100.00
34241;BME280;20503;50.200;19.508;2022-11-20T19:49:58;100971.84;;;-0.23;100.00
34241;BME280;20503;50.200;19.508;2022-11-20T19:55:09;100963.40;;;-0.09;100.00
34241;BME280;20503;50.200;19.508;2022-11-20T20:05:33;100936.71;;;0.18;100.00
34241;BME280;20503;50.200;19.508;2022-11-20T20:10:41;100945.52;;;0.29;100.00
34241;BME280;20503;50.200;19.508;2022-11-20T20:15:53;100945.94;;;0.44;100.00
34241;BME280;20503;50.200;19.508;2022-11-20T20:21:08;100953.03;;;0.45;100.00
34241;BME280;20503;50.200;19.508;2022-11-20T20:26:14;100953.59;;;0.48;100.00
34241;BME280;20503;50.200;19.508;2022-11-20T20:31:27;100957.99;;;0.49;100.00
34241;BME280;20503;50.200;19.508;2022-11-20T20:36:35;100948.51;;;0.55;100.00
34241;BME280;20503;50.200;19.508;2022-11-20T20:41:46;100946.36;;;0.49;100.00
34241;BME280;20503;50.200;19.508;2022-11-20T20:46:58;100948.09;;;0.59;100.00
34241;BME280;20503;50.200;19.508;2022-11-20T20:52:08;100952.32;;;0.62;100.00
34241;BME280;20503;50.200;19.508;2022-11-20T20:57:20;100961.81;;;0.66;100.00
34241;BME280;20503;50.200;19.508;2022-11-20T21:02:29;100974.02;;;0.79;100.00
34241;BME280;20503;50.200;19.508;2022-11-20T21:07:40;100965.24;;;0.87;100.00
34241;BME280;20503;50.200;19.508;2022-11-20T21:12:52;100958.15;;;0.86;100.00
34241;BME280;20503;50.200;19.508;2022-11-20T21:18:02;100953.04;;;0.92;100.00
34241;BME280;20503;50.200;19.508;2022-11-20T21:23:12;100963.09;;;0.90;100.00
34241;BME280;20503;50.200;19.508;2022-11-20T21:28:23;100963.83;;;0.92;100.00
34241;BME280;20503;50.200;19.508;2022-11-20T21:33:43;100963.83;;;0.92;100.00
34241;BME280;20503;50.200;19.508;2022-11-20T21:38:45;100955.85;;;1.00;100.00
34241;BME280;20503;50.200;19.508;2022-11-20T21:43:57;100962.12;;;1.01;100.00
34241;BME280;20503;50.200;19.508;2022-11-20T21:49:08;100957.85;;;0.98;100.00
34241;BME280;20503;50.200;19.508;2022-11-20T21:54:17;100948.77;;;0.99;100.00
34241;BME280;20503;50.200;19.508;2022-11-20T21:59:28;100949.34;;;1.03;100.00
34241;BME280;20503;50.200;19.508;2022-11-20T22:04:39;100949.88;;;1.06;100.00
34241;BME280;20503;50.200;19.508;2022-11-20T22:09:49;100960.24;;;1.11;100.00
34241;BME280;20503;50.200;19.508;2022-11-20T22:15:00;100963.80;;;1.11;100.00
34241;BME280;20503;50.200;19.508;2022-11-20T22:20:11;100973.70;;;1.11;100.00
34241;BME280;20503;50.200;19.508;2022-11-20T22:25:22;100968.19;;;1.12;100.00
34241;BME280;20503;50.200;19.508;2022-11-20T22:30:32;100970.30;;;1.18;100.00
34241;BME280;20503;50.200;19.508;2022-11-20T22:35:43;100971.86;;;1.21;100.00
34241;BME280;20503;50.200;19.508;2022-11-20T22:41:00;100987.34;;;1.19;100.00
34241;BME280;20503;50.200;19.508;2022-11-20T22:56:32;100989.33;;;1.17;100.00
34241;BME280;20503;50.200;19.508;2022-11-20T23:01:37;101001.80;;;1.18;100.00
34241;BME280;20503;50.200;19.508;2022-11-20T23:06:48;100994.71;;;1.17;100.00
34241;BME280;20503;50.200;19.508;2022-11-20T23:11:59;100996.97;;;1.12;100.00
34241;BME280;20503;50.200;19.508;2022-11-20T23:17:09;100994.57;;;1.09;100.00
34241;BME280;20503;50.200;19.508;2022-11-20T23:22:20;100997.67;;;1.04;100.00
34241;BME280;20503;50.200;19.508;2022-11-20T23:27:31;100998.97;;;1.00;100.00
34241;BME280;20503;50.200;19.508;2022-11-20T23:32:42;100969.74;;;0.96;100.00
34241;BME280;20503;50.200;19.508;2022-11-20T23:37:53;100962.53;;;0.96;100.00
34241;BME280;20503;50.200;19.508;2022-11-20T23:43:03;100960.67;;;0.97;100.00
34241;BME280;20503;50.200;19.508;2022-11-20T23:48:18;100961.26;;;0.91;100.00
34241;BME280;20503;50.200;19.508;2022-11-20T23:53:26;100951.47;;;0.90;100.00
34241;BME280;20503;50.200;19.508;2022-11-20T23:58:37;100964.09;;;0.89;100.00
